Time;durP1;ratioP1;P1;durP2;ratioP2;P2;SDS_P1;SDS_P2;PMS_P1;PMS_P2;Temp;Humidity;BMP_temperature;BMP_pressure;BME280_temperature;BME280_humidity;BME280_pressure;Samples;Min_cycle;Max_cycle;Signal;HPM_P1;HPM_P2
2022/06/01 00:01:57;;;;;;;2.30;2.20;;;;;;;21.22;40.92;99223.59;4117583;28;20241;-65
2022/06/01 00:03:59;;;;;;;2.20;1.90;;;;;;;21.14;41.04;99230.19;4119982;28;20230;-66
2022/06/01 00:06:01;;;;;;;2.40;2.10;;;;;;;21.09;40.99;99232.78;4114996;28;20281;-65
2022/06/01 00:08:03;;;;;;;2.80;2.10;;;;;;;20.84;41.52;99235.78;4119618;28;20715;-66
2022/06/01 00:10:06;;;;;;;3.27;2.20;;;;;;;20.66;41.80;99243.00;4119285;28;20241;-65
2022/06/01 00:12:09;;;;;;;2.73;2.43;;;;;;;20.98;41.62;99210.97;4121556;28;20729;-66
2022/06/01 00:14:10;;;;;;;2.37;2.17;;;;;;;21.34;41.07;99214.34;4120807;28;20615;-65
2022/06/01 00:16:13;;;;;;;3.53;2.03;;;;;;;20.94;42.13;99230.59;4126581;28;20321;-65
2022/06/01 00:18:15;;;;;;;2.90;2.43;;;;;;;21.41;41.13;99226.88;4113495;28;20241;-66
2022/06/01 00:20:18;;;;;;;3.17;2.10;;;;;;;20.92;41.84;99230.84;4120745;28;20248;-66
2022/06/01 00:22:19;;;;;;;3.00;2.30;;;;;;;21.23;40.95;99209.81;4120517;28;20280;-65
2022/06/01 00:24:24;;;;;;;4.33;2.00;;;;;;;20.79;41.66;99229.22;4119783;28;20808;-65
2022/06/01 00:26:25;;;;;;;5.03;2.70;;;;;;;20.79;41.84;99223.81;4117505;28;20296;-66
2022/06/01 00:28:29;;;;;;;3.40;2.60;;;;;;;20.69;41.99;99230.91;4120185;28;20234;-65
2022/06/01 00:30:32;;;;;;;2.60;2.33;;;;;;;20.20;42.72;99228.47;4127033;28;20230;-66
2022/06/01 00:32:34;;;;;;;3.20;2.53;;;;;;;20.46;42.32;99212.88;4119618;28;20233;-65
2022/06/01 00:34:35;;;;;;;4.40;2.53;;;;;;;20.60;42.48;99223.16;4116654;28;20291;-66
2022/06/01 00:36:37;;;;;;;4.07;2.80;;;;;;;20.80;42.22;99206.56;4115549;28;20226;-65
2022/06/01 00:38:39;;;;;;;3.57;2.80;;;;;;;21.24;41.51;99197.97;4110568;28;20237;-65
2022/06/01 00:40:40;;;;;;;5.47;2.90;;;;;;;21.15;41.92;99218.31;4122159;28;20246;-65
2022/06/01 00:42:45;;;;;;;6.20;2.70;;;;;;;20.51;43.06;99230.00;4117911;28;20230;-66
2022/06/01 00:44:48;;;;;;;4.57;2.90;;;;;;;21.30;42.06;99224.00;4110221;28;20246;-66
2022/06/01 00:46:50;;;;;;;5.60;3.23;;;;;;;20.80;43.02;99241.69;4112325;28;20760;-66
2022/06/01 00:48:56;;;;;;;6.47;3.00;;;;;;;20.47;43.45;99219.91;4108516;28;20320;-66
2022/06/01 00:50:58;;;;;;;3.33;2.70;;;;;;;20.84;43.17;99216.88;4116059;28;20237;-65
2022/06/01 00:53:13;;;;;;;5.17;2.77;;;;;;;21.38;42.17;99205.72;4116018;28;20366;-66
2022/06/01 00:55:32;;;;;;;3.33;2.60;;;;;;;20.73;43.34;99229.38;4123454;28;20312;-66
2022/06/01 00:57:33;;;;;;;3.03;2.60;;;;;;;20.61;43.62;99227.50;4116733;28;20237;-66
2022/06/01 00:59:40;;;;;;;5.77;3.00;;;;;;;20.85;43.49;99192.31;4117240;28;20234;-66
2022/06/01 01:01:43;;;;;;;3.17;2.87;;;;;;;20.54;44.00;99223.31;4125997;28;20226;-66
2022/06/01 01:03:49;;;;;;;2.70;2.50;;;;;;;20.20;44.76;99190.69;4122308;28;20711;-65
2022/06/01 01:06:00;;;;;;;3.50;2.77;;;;;;;20.24;44.40;99198.06;4121903;28;20893;-66
2022/06/01 01:08:04;;;;;;;4.80;3.07;;;;;;;18.91;47.47;99184.81;4117898;28;20229;-66
2022/06/01 01:10:07;;;;;;;5.80;3.03;;;;;;;19.24;46.87;99191.59;4117505;28;20292;-65
2022/06/01 01:12:11;;;;;;;3.40;3.10;;;;;;;19.69;45.94;99157.97;4124588;28;20238;-65
2022/06/01 01:14:16;;;;;;;3.00;2.70;;;;;;;19.40;46.76;99197.38;4114899;28;20855;-65
2022/06/01 01:16:20;;;;;;;3.77;3.30;;;;;;;19.00;47.38;99196.09;4123073;28;20226;-65
2022/06/01 01:18:26;;;;;;;7.03;3.83;;;;;;;19.43;46.88;99181.56;4126846;28;20230;-65
2022/06/01 01:20:28;;;;;;;5.23;3.40;;;;;;;18.69;48.38;99170.16;4123632;28;20883;-66
2022/06/01 01:22:38;;;;;;;5.37;2.97;;;;;;;19.80;46.79;99159.81;4120811;28;20292;-65
2022/06/01 01:25:07;;;;;;;3.17;2.87;;;;;;;19.77;47.21;99160.28;4117262;28;20296;-65
2022/06/01 01:27:09;;;;;;;7.50;3.17;;;;;;;18.68;49.02;99212.41;4122294;28;20670;-65
2022/06/01 01:29:11;;;;;;;4.53;3.47;;;;;;;19.47;47.87;99161.19;4116189;28;20233;-66
2022/06/01 01:31:20;;;;;;;5.33;3.63;;;;;;;20.28;46.30;99178.72;4116635;28;20283;-66
2022/06/01 01:33:25;;;;;;;5.03;3.40;;;;;;;21.06;44.89;99180.06;4115042;28;20237;-65
2022/06/01 01:35:27;;;;;;;7.03;3.30;;;;;;;21.27;44.36;99196.63;4109480;28;20348;-66
2022/06/01 01:37:29;;;;;;;5.20;3.40;;;;;;;21.09;44.59;99227.38;4127327;28;20229;-65
2022/06/01 01:39:34;;;;;;;3.83;3.17;;;;;;;20.88;44.79;99234.25;4122538;28;20238;-65
2022/06/01 01:41:40;;;;;;;5.03;3.30;;;;;;;20.11;46.11;99248.75;4126407;28;20333;-65
2022/06/01 01:43:47;;;;;;;6.50;3.40;;;;;;;20.65;45.57;99210.81;4117842;28;20295;-65
2022/06/01 01:45:49;;;;;;;6.43;3.60;;;;;;;21.29;44.40;99211.56;4117237;28;20252;-66
2022/06/01 01:47:52;;;;;;;8.80;4.47;;;;;;;20.90;45.45;99238.34;4122466;28;20244;-66
2022/06/01 01:49:54;;;;;;;4.03;3.60;;;;;;;20.35;46.53;99238.84;4114958;28;20229;-65
2022/06/01 01:52:00;;;;;;;5.27;4.00;;;;;;;21.07;45.24;99210.59;4114005;28;20279;-65
2022/06/01 01:54:13;;;;;;;5.30;3.57;;;;;;;20.97;45.38;99230.97;4118809;28;21004;-65
2022/06/01 01:56:35;;;;;;;5.57;3.63;;;;;;;20.94;45.37;99242.22;4123289;28;20232;-65
2022/06/01 01:58:44;;;;;;;8.30;3.47;;;;;;;20.80;45.79;99244.38;4108877;28;20229;-66
2022/06/01 02:00:53;;;;;;;5.13;3.30;;;;;;;20.92;45.09;99238.09;4123483;28;20291;-65
2022/06/01 02:03:18;;;;;;;4.13;3.50;;;;;;;19.96;47.09;99247.34;4124564;28;20244;-66
2022/06/01 02:08:24;;;;;;;4.07;3.13;;;;;;;21.10;44.94;99212.81;4113804;28;20243;-66
2022/06/01 02:12:48;;;;;;;5.27;3.40;;;;;;;20.19;45.21;99241.13;4122489;28;20331;-65
2022/06/01 02:14:55;;;;;;;3.27;2.93;;;;;;;20.23;44.74;99209.13;4122235;28;20292;-66
2022/06/01 02:17:03;;;;;;;5.47;3.07;;;;;;;20.71;43.58;99215.28;4116836;28;20326;-65
2022/06/01 02:19:14;;;;;;;4.97;3.17;;;;;;;20.44;43.79;99245.50;4124459;28;20233;-66
2022/06/01 02:21:20;;;;;;;3.63;3.23;;;;;;;20.48;43.82;99235.84;4114665;28;20311;-65
2022/06/01 02:23:22;;;;;;;5.80;3.03;;;;;;;20.21;43.69;99246.28;4113052;28;20303;-66
2022/06/01 02:25:24;;;;;;;4.70;3.27;;;;;;;18.98;46.08;99246.66;4113313;28;20241;-65
2022/06/01 02:27:27;;;;;;;4.30;3.17;;;;;;;19.51;45.74;99237.03;4113325;28;20789;-66
2022/06/01 02:29:37;;;;;;;4.37;3.10;;;;;;;20.09;44.59;99223.88;4117042;28;20240;-65
2022/06/01 02:31:41;;;;;;;4.70;3.33;;;;;;;19.47;45.62;99246.63;4114775;28;20259;-65
2022/06/01 02:33:46;;;;;;;4.67;3.30;;;;;;;18.84;45.78;99269.44;4118747;28;20300;-65
2022/06/01 02:35:51;;;;;;;3.70;3.10;;;;;;;19.01;46.03;99203.09;4109669;28;20230;-65
2022/06/01 02:37:56;;;;;;;4.10;3.00;;;;;;;17.95;47.59;99226.59;4120073;28;20230;-66
2022/06/01 02:40:00;;;;;;;3.53;2.93;;;;;;;17.33;49.05;99202.22;4122662;28;20303;-66
2022/06/01 02:42:30;;;;;;;7.50;3.07;;;;;;;17.26;48.27;99226.44;4111435;28;20233;-65
2022/06/01 02:44:33;;;;;;;3.63;2.80;;;;;;;18.26;47.15;99201.50;4112426;28;20226;-66
2022/06/01 02:46:36;;;;;;;5.30;3.60;;;;;;;19.47;45.07;99180.06;4114300;28;20234;-66
2022/06/01 02:48:43;;;;;;;3.37;3.07;;;;;;;18.86;44.94;99246.59;4113369;28;20259;-66
2022/06/01 02:50:45;;;;;;;3.77;3.30;;;;;;;18.91;45.36;99219.84;4114201;28;20604;-66
2022/06/01 02:52:47;;;;;;;4.93;3.47;;;;;;;19.47;44.50;99219.66;4120607;28;20288;-65
2022/06/01 02:54:48;;;;;;;6.30;3.03;;;;;;;19.67;43.95;99236.41;4122558;28;20265;-66
2022/06/01 02:56:50;;;;;;;4.93;3.53;;;;;;;19.69;44.05;99241.56;4116842;28;20233;-65
2022/06/01 02:58:52;;;;;;;7.43;3.73;;;;;;;18.95;45.22;99247.97;4116802;28;20257;-66
2022/06/01 03:00:54;;;;;;;5.33;3.43;;;;;;;18.25;46.95;99269.81;4114469;28;20233;-65
2022/06/01 03:02:59;;;;;;;6.47;3.37;;;;;;;18.73;45.09;99247.56;4118582;28;20234;-65
2022/06/01 03:05:01;;;;;;;4.40;3.30;;;;;;;19.07;44.55;99239.94;4117829;28;20314;-65
2022/06/01 03:07:03;;;;;;;4.53;3.20;;;;;;;19.34;44.11;99236.88;4116149;28;20237;-65
2022/06/01 03:09:11;;;;;;;5.43;3.50;;;;;;;19.39;43.72;99268.53;4121492;28;20233;-65
2022/06/01 03:11:13;;;;;;;4.30;3.60;;;;;;;19.47;43.42;99273.59;4122743;28;20300;-66
2022/06/01 03:13:16;;;;;;;5.70;3.70;;;;;;;18.41;45.11;99279.19;4115898;28;20230;-65
2022/06/01 03:15:20;;;;;;;5.37;3.13;;;;;;;18.11;45.28;99284.44;4121639;28;20690;-65
2022/06/01 03:17:21;;;;;;;3.77;3.10;;;;;;;17.99;46.00;99252.00;4117477;28;20229;-65
2022/06/01 03:19:24;;;;;;;6.17;3.17;;;;;;;18.74;44.62;99262.66;4120080;28;20249;-66
2022/06/01 03:21:26;;;;;;;3.70;3.27;;;;;;;19.27;44.15;99252.31;4121289;28;20245;-65
2022/06/01 03:23:28;;;;;;;3.80;3.33;;;;;;;18.84;44.70;99277.53;4120215;28;20714;-66
2022/06/01 03:25:30;;;;;;;3.30;3.00;;;;;;;18.85;44.93;99261.13;4116295;28;20241;-65
2022/06/01 03:27:32;;;;;;;4.87;3.20;;;;;;;18.91;44.50;99281.78;4116030;28;20336;-65
2022/06/01 03:29:33;;;;;;;3.93;3.20;;;;;;;18.87;44.52;99277.06;4117638;28;20993;-65
2022/06/01 03:31:35;;;;;;;3.97;3.23;;;;;;;18.27;45.45;99286.53;4119967;28;20308;-65
2022/06/01 03:33:37;;;;;;;4.37;3.20;;;;;;;18.74;44.61;99256.47;4120471;28;20284;-67
2022/06/01 03:35:40;;;;;;;3.33;3.00;;;;;;;18.79;44.31;99283.53;4120923;28;20272;-65
2022/06/01 03:37:41;;;;;;;3.57;3.07;;;;;;;19.13;43.71;99255.19;4118064;28;20311;-65
2022/06/01 03:39:43;;;;;;;3.77;3.40;;;;;;;19.65;42.78;99253.88;4118376;28;20746;-65
2022/06/01 03:41:45;;;;;;;4.87;3.43;;;;;;;19.46;42.60;99288.94;4115745;28;20245;-68
2022/06/01 03:46:07;;;;;;;3.90;3.20;;;;;;;18.78;43.99;99269.25;4119586;28;20287;-67
2022/06/01 03:48:09;;;;;;;3.47;3.17;;;;;;;19.05;43.33;99252.81;4117487;28;20241;-66
2022/06/01 03:50:12;;;;;;;4.53;3.40;;;;;;;17.76;45.29;99292.94;4120898;28;20230;-68
2022/06/01 03:52:14;;;;;;;4.00;3.27;;;;;;;16.37;47.67;99280.63;4124051;28;20242;-67
2022/06/01 03:54:16;;;;;;;3.77;3.43;;;;;;;18.32;44.95;99213.22;4122279;28;20234;-65
2022/06/01 03:56:18;;;;;;;5.83;3.43;;;;;;;18.63;44.21;99232.97;4115404;28;20265;-66
2022/06/01 03:58:22;;;;;;;4.23;3.20;;;;;;;19.18;43.05;99259.88;4117957;28;20747;-65
2022/06/01 04:00:25;;;;;;;6.60;3.43;;;;;;;19.27;42.68;99239.66;4118003;28;20233;-65
2022/06/01 04:02:27;;;;;;;3.50;3.10;;;;;;;19.32;42.70;99263.25;4121638;28;20243;-66
2022/06/01 04:04:29;;;;;;;3.97;2.80;;;;;;;19.47;42.29;99269.03;4120940;28;20305;-69
2022/06/01 04:06:31;;;;;;;4.70;3.20;;;;;;;19.35;42.47;99278.13;4125406;28;20285;-66
2022/06/01 04:08:34;;;;;;;2.90;2.70;;;;;;;17.23;45.46;99305.59;4119045;28;20230;-66
2022/06/01 04:10:38;;;;;;;4.83;2.80;;;;;;;18.22;44.18;99243.34;4124122;28;20229;-66
2022/06/01 04:12:40;;;;;;;3.20;2.90;;;;;;;18.36;43.75;99241.34;4123512;28;20245;-66
2022/06/01 04:14:42;;;;;;;5.87;2.70;;;;;;;19.05;42.68;99266.28;4108779;28;20237;-66
2022/06/01 04:16:43;;;;;;;3.53;3.17;;;;;;;19.11;42.47;99275.31;4121704;28;20291;-66
2022/06/01 04:18:46;;;;;;;3.10;2.80;;;;;;;18.16;44.45;99280.03;4118785;28;20238;-66
2022/06/01 04:20:52;;;;;;;3.67;2.80;;;;;;;18.96;42.87;99254.16;4123815;28;20265;-66
2022/06/01 04:22:55;;;;;;;2.93;2.60;;;;;;;18.66;43.03;99292.59;4129247;28;20234;-68
2022/06/01 04:24:56;;;;;;;4.73;2.63;;;;;;;18.30;43.93;99293.38;4122373;28;20442;-66
2022/06/01 04:26:58;;;;;;;4.33;3.00;;;;;;;19.00;43.03;99271.53;4121408;28;20234;-66
2022/06/01 04:29:02;;;;;;;4.33;2.83;;;;;;;18.49;43.71;99278.06;4114361;28;20230;-66
2022/06/01 04:31:04;;;;;;;3.23;2.70;;;;;;;18.78;43.25;99281.91;4113545;28;20234;-66
2022/06/01 04:33:06;;;;;;;6.77;3.03;;;;;;;18.29;44.22;99289.00;4121482;28;20769;-66
2022/06/01 04:35:08;;;;;;;3.87;2.70;;;;;;;18.15;43.84;99315.22;4119582;28;20288;-66
2022/06/01 04:37:10;;;;;;;2.67;2.47;;;;;;;18.54;43.50;99267.44;4121484;28;20296;-66
2022/06/01 04:39:11;;;;;;;5.10;2.97;;;;;;;19.19;42.67;99249.94;4126675;28;20288;-66
2022/06/01 04:41:13;;;;;;;2.83;2.60;;;;;;;18.63;43.25;99313.75;4117335;28;20238;-66
2022/06/01 04:43:18;;;;;;;2.67;2.40;;;;;;;18.21;43.82;99325.94;4119538;28;20237;-66
2022/06/01 04:45:26;;;;;;;3.87;2.80;;;;;;;17.06;45.89;99336.69;4118728;28;20249;-66
2022/06/01 04:47:28;;;;;;;5.17;2.63;;;;;;;16.75;46.57;99327.44;4121893;28;20237;-66
2022/06/01 04:49:30;;;;;;;3.70;2.90;;;;;;;17.46;46.19;99267.50;4116675;28;20237;-66
2022/06/01 04:51:31;;;;;;;2.80;2.33;;;;;;;16.11;47.42;99319.00;4114106;28;20781;-66
2022/06/01 04:53:33;;;;;;;3.67;2.70;;;;;;;17.06;45.78;99289.16;4121333;28;20380;-66
2022/06/01 04:55:35;;;;;;;4.13;2.60;;;;;;;17.39;46.03;99233.63;4119639;28;20238;-66
2022/06/01 04:57:37;;;;;;;3.70;2.40;;;;;;;18.26;44.56;99214.94;4120065;28;20237;-66
2022/06/01 04:59:38;;;;;;;3.93;2.70;;;;;;;17.83;45.50;99248.00;4123622;28;20384;-66
2022/06/01 05:01:40;;;;;;;5.10;2.57;;;;;;;17.86;45.94;99207.22;4118097;28;20699;-66
2022/06/01 05:03:42;;;;;;;4.13;3.30;;;;;;;17.13;47.49;99243.47;4120449;28;20234;-66
2022/06/01 05:05:44;;;;;;;3.03;2.83;;;;;;;17.69;46.39;99206.94;4122526;28;20237;-66
2022/06/01 05:07:45;;;;;;;5.57;3.00;;;;;;;19.05;44.39;99225.88;4121140;28;20355;-66
2022/06/01 05:09:47;;;;;;;7.03;3.23;;;;;;;18.66;45.02;99263.00;4120030;28;20241;-66
2022/06/01 05:11:50;;;;;;;6.70;2.83;;;;;;;18.01;46.38;99266.88;4118115;28;20237;-66
2022/06/01 05:13:52;;;;;;;5.00;3.00;;;;;;;17.50;47.07;99273.25;4117364;28;20714;-66
2022/06/01 05:15:57;;;;;;;4.03;2.90;;;;;;;18.08;46.29;99266.84;4115674;28;20222;-66
2022/06/01 05:17:59;;;;;;;5.20;3.10;;;;;;;18.11;46.22;99257.53;4126454;28;20267;-66
2022/06/01 05:20:01;;;;;;;4.87;2.60;;;;;;;17.66;46.84;99270.03;4122377;28;20238;-66
2022/06/01 05:22:03;;;;;;;5.77;3.57;;;;;;;17.58;47.21;99253.34;4127570;28;20678;-66
2022/06/01 05:24:05;;;;;;;3.80;3.13;;;;;;;18.16;45.67;99298.06;4113039;28;20226;-66
2022/06/01 05:26:07;;;;;;;3.97;2.73;;;;;;;18.21;46.43;99279.38;4117344;28;20615;-66
2022/06/01 05:28:09;;;;;;;8.20;3.10;;;;;;;18.36;45.58;99281.72;4123932;28;20284;-66
2022/06/01 05:30:11;;;;;;;8.13;3.43;;;;;;;17.96;47.17;99266.72;4114953;28;20284;-66
2022/06/01 05:32:13;;;;;;;3.50;3.20;;;;;;;18.88;44.92;99244.53;4121431;28;20230;-66
2022/06/01 05:34:15;;;;;;;3.53;3.07;;;;;;;19.49;44.30;99271.50;4122714;28;20234;-66
2022/06/01 05:36:18;;;;;;;3.13;2.77;;;;;;;19.46;44.30;99288.13;4130771;28;20288;-66
2022/06/01 05:38:19;;;;;;;4.77;3.50;;;;;;;17.89;47.40;99257.06;4117477;28;20588;-66
2022/06/01 05:40:21;;;;;;;4.50;3.33;;;;;;;18.57;45.84;99251.66;4115568;28;20301;-68
2022/06/01 05:42:23;;;;;;;4.47;3.00;;;;;;;19.14;45.00;99264.09;4127357;28;20229;-66
2022/06/01 05:44:25;;;;;;;4.47;3.40;;;;;;;18.84;45.23;99316.03;4118766;28;20651;-66
2022/06/01 05:46:26;;;;;;;4.00;2.97;;;;;;;19.38;44.76;99248.81;4123087;28;20245;-66
2022/06/01 05:48:29;;;;;;;4.63;2.90;;;;;;;18.56;45.91;99322.72;4124948;28;20234;-66
2022/06/01 05:50:32;;;;;;;4.47;3.30;;;;;;;19.28;44.71;99286.28;4112197;28;20594;-68
2022/06/01 05:52:38;;;;;;;3.10;2.80;;;;;;;19.33;45.02;99308.00;4123516;28;20604;-68
2022/06/01 05:54:42;;;;;;;4.10;2.80;;;;;;;18.78;46.18;99325.81;4123546;28;20234;-68
2022/06/01 05:56:43;;;;;;;3.90;3.10;;;;;;;18.55;46.86;99309.50;4117151;28;20234;-68
2022/06/01 05:58:47;;;;;;;4.77;3.10;;;;;;;19.23;45.55;99276.19;4115394;28;20233;-66
2022/06/01 06:00:50;;;;;;;4.60;2.87;;;;;;;19.20;45.43;99314.41;4104751;28;20245;-66
2022/06/01 06:02:52;;;;;;;5.60;3.07;;;;;;;18.81;45.32;99335.31;4118435;28;20914;-66
2022/06/01 06:04:54;;;;;;;4.57;3.03;;;;;;;19.06;46.00;99267.09;4120073;28;20660;-66
2022/06/01 06:06:56;;;;;;;4.47;2.87;;;;;;;19.50;45.03;99286.63;4120896;28;20503;-66
2022/06/01 06:09:04;;;;;;;4.10;3.37;;;;;;;19.42;45.51;99277.00;4107921;28;20288;-66
2022/06/01 06:11:06;;;;;;;4.00;2.97;;;;;;;19.59;44.89;99285.28;4122436;28;20283;-65
2022/06/01 06:13:08;;;;;;;2.90;2.63;;;;;;;18.72;46.39;99317.81;4123313;28;20230;-68
2022/06/01 06:15:10;;;;;;;3.60;3.20;;;;;;;17.90;47.47;99337.50;4118859;28;20292;-68
2022/06/01 06:17:11;;;;;;;3.53;2.97;;;;;;;18.07;47.88;99280.53;4122242;28;20311;-68
2022/06/01 06:19:15;;;;;;;3.47;2.80;;;;;;;19.12;46.65;99276.97;4122173;28;20696;-68
2022/06/01 06:21:18;;;;;;;3.70;3.10;;;;;;;18.90;46.78;99311.66;4117052;28;20246;-68
2022/06/01 06:23:20;;;;;;;5.67;2.60;;;;;;;19.67;45.58;99308.38;4113062;28;20292;-68
2022/06/01 06:25:22;;;;;;;4.33;2.73;;;;;;;19.39;45.91;99295.50;4118953;28;20245;-68
2022/06/01 06:27:26;;;;;;;4.13;3.10;;;;;;;19.48;46.39;99321.06;4123889;28;20295;-67
2022/06/01 06:29:28;;;;;;;6.83;3.47;;;;;;;18.82;47.32;99301.16;4114211;28;20273;-68
2022/06/01 06:31:30;;;;;;;3.70;3.20;;;;;;;18.21;48.34;99344.78;4114548;28;20627;-67
2022/06/01 06:33:32;;;;;;;9.73;3.47;;;;;;;18.36;48.60;99322.91;4117691;28;20245;-67
2022/06/01 06:35:34;;;;;;;6.90;3.40;;;;;;;18.95;48.01;99295.63;4116159;28;20297;-65
2022/06/01 06:37:36;;;;;;;8.77;3.10;;;;;;;19.49;47.05;99293.88;4115900;28;20237;-67
2022/06/01 06:39:38;;;;;;;8.73;3.50;;;;;;;19.36;46.83;99282.47;4114958;28;20240;-66
2022/06/01 06:41:40;;;;;;;5.20;2.97;;;;;;;20.05;45.49;99282.91;4117685;28;20233;-67
2022/06/01 06:43:42;;;;;;;5.20;3.20;;;;;;;19.23;46.29;99322.00;4121295;28;20234;-67
2022/06/01 06:45:49;;;;;;;4.30;2.60;;;;;;;19.12;46.85;99318.22;4122271;28;20237;-67
2022/06/01 06:47:50;;;;;;;4.00;2.60;;;;;;;19.20;46.28;99327.88;4117959;28;20304;-66
2022/06/01 06:49:52;;;;;;;5.00;2.87;;;;;;;18.92;46.34;99349.94;4115649;28;20726;-67
2022/06/01 06:51:54;;;;;;;3.10;2.57;;;;;;;19.07;45.89;99349.59;4117849;28;20288;-65
2022/06/01 06:53:55;;;;;;;5.67;3.00;;;;;;;19.70;45.42;99279.06;4119638;28;20316;-67
2022/06/01 06:55:57;;;;;;;7.67;2.70;;;;;;;19.38;45.26;99359.34;4111267;28;20238;-68
2022/06/01 06:57:59;;;;;;;4.27;2.80;;;;;;;19.21;45.25;99364.53;4121858;28;20305;-68
2022/06/01 07:00:03;;;;;;;2.67;2.23;;;;;;;19.61;44.17;99347.09;4105587;28;20229;-65
2022/06/01 07:02:05;;;;;;;2.87;2.53;;;;;;;19.62;43.99;99336.06;4118568;28;20865;-66
2022/06/01 07:04:07;;;;;;;6.43;2.33;;;;;;;19.65;44.24;99324.78;4120505;28;20320;-65
2022/06/01 07:06:09;;;;;;;4.97;2.43;;;;;;;20.33;43.78;99320.06;4118521;28;20226;-65
2022/06/01 07:08:11;;;;;;;6.30;2.37;;;;;;;20.37;43.44;99347.41;4120843;28;20239;-68
2022/06/01 07:10:12;;;;;;;3.20;2.40;;;;;;;20.20;42.84;99383.16;4121032;28;20238;-66
2022/06/01 07:12:14;;;;;;;4.70;2.40;;;;;;;20.22;43.73;99367.53;4115017;28;20233;-68
2022/06/01 07:14:16;;;;;;;3.67;2.20;;;;;;;19.81;42.73;99385.38;4116820;28;20234;-67
2022/06/01 07:16:22;;;;;;;2.47;2.00;;;;;;;19.73;43.37;99387.59;4115362;28;20300;-66
2022/06/01 07:18:24;;;;;;;2.53;2.27;;;;;;;20.05;41.87;99375.47;4113283;28;20225;-66
2022/06/01 07:20:26;;;;;;;3.03;2.23;;;;;;;20.19;42.96;99367.19;4116839;28;20796;-66
2022/06/01 07:22:27;;;;;;;2.53;2.30;;;;;;;19.88;43.37;99372.63;4111812;28;20339;-68
2022/06/01 07:24:29;;;;;;;5.23;2.30;;;;;;;19.26;44.12;99353.91;4114542;28;20234;-66
2022/06/01 07:26:37;;;;;;;3.77;2.30;;;;;;;20.27;41.40;99336.38;4123089;28;20288;-66
2022/06/01 07:28:39;;;;;;;3.93;2.23;;;;;;;20.23;41.63;99389.97;4120476;28;21045;-66
2022/06/01 07:30:41;;;;;;;2.67;2.10;;;;;;;20.12;40.47;99391.56;4119462;28;20248;-68
2022/06/01 07:32:44;;;;;;;3.03;1.87;;;;;;;20.48;40.47;99361.97;4112051;28;20241;-68
2022/06/01 07:34:46;;;;;;;2.40;2.00;;;;;;;20.37;40.52;99386.03;4120017;28;20733;-68
2022/06/01 07:36:48;;;;;;;2.57;2.20;;;;;;;20.72;41.47;99363.63;4121316;28;20242;-68
2022/06/01 07:43:39;;;;;;;3.90;2.00;;;;;;;20.49;40.62;99417.63;4119837;28;20238;-69
2022/06/01 07:45:44;;;;;;;2.43;2.23;;;;;;;20.61;41.11;99400.38;4117267;28;20445;-68
2022/06/01 07:47:46;;;;;;;5.87;2.57;;;;;;;20.73;41.49;99403.06;4117870;28;20237;-68
2022/06/01 07:50:08;;;;;;;3.73;2.03;;;;;;;20.87;40.32;99392.88;4122520;28;20698;-68
2022/06/01 07:52:30;;;;;;;3.57;2.50;;;;;;;20.51;41.77;99408.22;4116510;28;20280;-66
2022/06/01 07:54:32;;;;;;;2.60;2.00;;;;;;;20.62;41.23;99387.69;4109142;28;20234;-69
2022/06/01 07:56:34;;;;;;;4.43;2.13;;;;;;;21.27;40.54;99356.97;4124063;28;20312;-66
2022/06/01 07:58:36;;;;;;;2.77;2.00;;;;;;;20.73;41.63;99402.25;4119287;28;20601;-68
2022/06/01 08:00:38;;;;;;;4.10;2.40;;;;;;;20.79;41.00;99395.94;4122957;28;20269;-68
2022/06/01 08:02:40;;;;;;;2.53;2.00;;;;;;;21.23;39.50;99346.91;4109779;28;20268;-68
2022/06/01 08:04:42;;;;;;;3.13;2.30;;;;;;;21.11;39.27;99398.28;4117405;28;20316;-68
2022/06/01 08:06:44;;;;;;;4.60;2.50;;;;;;;20.85;39.05;99424.69;4115216;28;20300;-66
2022/06/01 08:08:56;;;;;;;3.33;2.33;;;;;;;20.87;39.39;99410.94;4116016;28;20388;-67
2022/06/01 08:11:01;;;;;;;4.23;1.77;;;;;;;21.24;39.06;99387.22;4123477;28;20225;-68
2022/06/01 08:13:06;;;;;;;3.07;1.97;;;;;;;21.04;40.44;99424.59;4118063;28;20299;-68
2022/06/01 08:15:08;;;;;;;2.00;1.80;;;;;;;21.20;40.16;99398.75;4118259;28;20723;-68
2022/06/01 08:17:17;;;;;;;3.10;1.90;;;;;;;20.84;39.20;99431.16;4124261;28;20244;-68
2022/06/01 08:19:19;;;;;;;4.17;2.00;;;;;;;20.82;41.46;99422.47;4124857;28;20304;-68
2022/06/01 08:21:21;;;;;;;3.77;1.83;;;;;;;21.88;38.93;99402.53;4128174;28;20272;-68
2022/06/01 08:23:26;;;;;;;4.20;1.80;;;;;;;20.71;41.04;99410.59;4119187;28;20260;-68
2022/06/01 08:25:28;;;;;;;4.63;2.23;;;;;;;21.10;40.54;99396.63;4115892;28;20290;-67
2022/06/01 08:27:30;;;;;;;3.83;2.30;;;;;;;21.60;38.54;99406.06;4123364;28;20234;-67
2022/06/01 08:29:32;;;;;;;2.17;2.00;;;;;;;21.55;39.97;99406.75;4119417;28;20750;-67
2022/06/01 08:31:34;;;;;;;2.93;2.20;;;;;;;21.09;39.63;99408.50;4122423;28;20311;-68
2022/06/01 08:33:36;;;;;;;2.77;2.10;;;;;;;21.80;39.86;99411.88;4128323;28;20714;-67
2022/06/01 08:35:41;;;;;;;2.63;2.07;;;;;;;21.98;38.83;99393.78;4123227;28;20238;-68
2022/06/01 08:37:42;;;;;;;2.87;2.10;;;;;;;22.35;38.18;99402.31;4127190;28;20241;-67
2022/06/01 08:39:44;;;;;;;3.50;2.00;;;;;;;21.64;39.01;99432.41;4126182;28;20237;-68
2022/06/01 08:41:46;;;;;;;2.07;1.90;;;;;;;22.10;38.85;99414.34;4117630;28;20234;-67
2022/06/01 08:43:54;;;;;;;3.97;2.00;;;;;;;21.44;39.46;99430.06;4119489;28;20237;-67
2022/06/01 08:46:00;;;;;;;3.80;1.93;;;;;;;21.50;40.30;99393.13;4118886;28;20276;-68
2022/06/01 08:48:03;;;;;;;3.87;2.00;;;;;;;21.27;40.87;99415.66;4120452;28;20237;-66
2022/06/01 08:50:14;;;;;;;2.43;2.10;;;;;;;22.07;39.93;99379.63;4117640;28;20230;-66
2022/06/01 08:52:16;;;;;;;2.90;1.73;;;;;;;21.71;39.75;99427.69;4119792;28;20237;-66
2022/06/01 08:54:18;;;;;;;5.17;2.00;;;;;;;22.09;38.70;99398.31;4123806;28;20741;-67
2022/06/01 08:56:27;;;;;;;5.78;2.00;;;;;;;22.37;39.18;99404.78;4126437;28;20227;-66
2022/06/01 08:58:42;;;;;;;3.97;2.00;;;;;;;21.95;39.09;99400.53;4118735;28;20660;-67
2022/06/01 09:00:59;;;;;;;3.10;1.80;;;;;;;21.96;39.30;99412.97;4121742;28;21090;-66
2022/06/01 09:03:20;;;;;;;3.33;1.90;;;;;;;22.19;39.38;99384.97;4117115;28;20230;-66
2022/06/01 09:05:40;;;;;;;2.13;1.90;;;;;;;21.82;40.23;99404.34;4121564;28;20234;-67
2022/06/01 09:07:56;;;;;;;4.30;2.00;;;;;;;21.84;39.05;99407.63;4121672;28;20308;-66
2022/06/01 09:10:52;;;;;;;2.42;2.10;;;;;;;21.40;39.71;99415.38;4120076;28;20249;-67
2022/06/01 09:13:03;;;;;;;2.17;1.98;;;;;;;22.03;39.61;99381.16;4098090;28;20230;-66
2022/06/01 09:15:23;;;;;;;3.20;1.95;;;;;;;21.58;40.18;99384.66;4110454;28;20230;-67
2022/06/01 09:17:26;;;;;;;1.58;1.48;;;;;;;21.82;39.93;99366.44;4120911;28;20234;-68
2022/06/01 09:24:27;;;;;;;2.83;1.90;;;;;;;21.68;39.77;99419.19;4114896;28;20307;-65
2022/06/01 09:26:29;;;;;;;2.50;1.88;;;;;;;22.65;38.68;99374.06;4121384;28;20820;-66
2022/06/01 09:28:38;;;;;;;2.45;1.80;;;;;;;22.38;38.97;99404.53;4122211;28;20234;-68
2022/06/01 09:30:44;;;;;;;2.05;1.90;;;;;;;22.21;38.96;99409.91;4120622;28;20322;-67
2022/06/01 09:33:04;;;;;;;1.98;1.70;;;;;;;22.70;38.59;99398.53;4117273;28;20340;-67
2022/06/01 09:35:11;;;;;;;2.88;1.73;;;;;;;22.51;38.44;99399.84;4107028;28;20936;-67
2022/06/01 09:37:24;;;;;;;3.47;1.70;;;;;;;22.38;39.05;99399.13;4124495;28;20222;-67
2022/06/01 09:39:27;;;;;;;3.95;2.50;;;;;;;22.19;38.55;99420.16;4112763;28;20233;-67
2022/06/01 09:41:31;;;;;;;5.03;1.67;;;;;;;22.93;38.40;99392.13;4124716;28;20238;-67
2022/06/01 09:43:35;;;;;;;2.28;1.40;;;;;;;22.99;37.63;99412.78;4120402;28;21051;-67
2022/06/01 09:45:37;;;;;;;1.58;1.48;;;;;;;22.54;37.21;99445.41;4117433;28;20789;-68
2022/06/01 09:47:43;;;;;;;1.85;1.60;;;;;;;23.21;38.78;99409.31;4120451;28;20240;-67
2022/06/01 09:49:53;;;;;;;2.22;1.75;;;;;;;22.72;37.99;99428.09;4127317;28;20664;-67
2022/06/01 09:51:57;;;;;;;1.50;1.40;;;;;;;23.21;37.88;99395.75;4127526;28;20234;-67
2022/06/01 09:54:13;;;;;;;3.83;1.58;;;;;;;23.32;37.95;99385.84;4113294;28;20277;-68
2022/06/01 09:56:34;;;;;;;3.85;1.92;;;;;;;23.29;36.30;99403.44;4121215;28;20605;-67
2022/06/01 10:06:13;;;;;;;1.88;1.63;;;;;;;23.22;38.41;99397.38;4119929;28;20411;-66
2022/06/01 10:08:18;;;;;;;3.30;1.65;;;;;;;23.69;37.34;99374.38;4117521;28;20703;-67
2022/06/01 10:10:26;;;;;;;2.70;1.80;;;;;;;23.42;39.39;99404.97;4120283;28;20226;-68
2022/06/01 10:12:41;;;;;;;3.15;1.63;;;;;;;23.15;37.71;99427.41;4120031;28;20645;-67